F/V Eema 2 — FL9603 — position and weather

sailwx.info

Track history (hours):
 
Tides and Currents Weather Stations Pressure Air Temp Water Temp Dewpoint Dewpoint Depression Visibility Wind Speed Wind Dir Waves Ship Positions

F/V Eema 2

Last reported at 2018-Apr-22 22:13 UTC. Time now 2018-Apr-24 21:15 UTC.
Position N 43°26' W 001°40'.

Length 10 m.

Type: Fishing. MMSI: 22700000.

Date/timePositionNaut miles runAvg speedWind from/ knotsBaromVisibWave heightAir tempDewpointWater temp
2018-Apr-22 22:13N 43°26' W 001°40'12 8.4
2018-Apr-22 20:48N 43°38' W 001°40'33 8.2
2018-Apr-22 16:49N 44°10' W 001°38'3 8.7
2018-Apr-22 16:30N 44°13' W 001°38'5 8.7
2018-Apr-22 15:59N 44°18' W 001°37'4 8.8
2018-Apr-22 15:29N 44°22' W 001°37'2 2.8
2018-Apr-22 14:58N 44°23' W 001°37'0 0.9
2018-Apr-22 14:30N 44°24' W 001°38'1 0.7
2018-Apr-22 13:16N 44°25' W 001°38'0 1.0
2018-Apr-22 12:57N 44°25' W 001°39'1 0.9
2018-Apr-22 12:15N 44°25' W 001°39'0 1.0
2018-Apr-22 11:59N 44°26' W 001°39'0 0.9
2018-Apr-22 11:27N 44°26' W 001°38'0 0.7
2018-Apr-22 10:56N 44°26' W 001°38'0 0.9
2018-Apr-22 10:30N 44°26' W 001°38'0 1.0
2018-Apr-22 10:00N 44°27' W 001°38'0 0.9
2018-Apr-22 09:27N 44°27' W 001°37'5 4.2
2018-Apr-22 08:11N 44°25' W 001°31'1 2.8
2018-Apr-22 07:59N 44°24' W 001°30'1 1.9
2018-Apr-22 07:29N 44°24' W 001°30'1 2.3
2018-Apr-22 07:00N 44°22' W 001°29'1 0.7
2018-Apr-22 05:33N 44°23' W 001°31'6 0.3
2018-Apr-21 10:57N 44°26' W 001°38'1 2.1
2018-Apr-21 10:29N 44°25' W 001°38'1 1.1
2018-Apr-21 09:55N 44°25' W 001°38'0 1.1
2018-Apr-21 09:30N 44°24' W 001°38'3 0.2
2018-Apr-20 20:47N 44°25' W 001°42'0 0.5
2018-Apr-20 20:30N 44°25' W 001°42'1 2.6
2018-Apr-20 20:00N 44°26' W 001°42'3 4.8
2018-Apr-20 19:26N 44°27' W 001°38'2 5.8
2018-Apr-20 19:00N 44°25' W 001°38'1 1.9
2018-Apr-20 18:25N 44°24' W 001°39'3 7.3
2018-Apr-20 18:00N 44°21' W 001°38'3 6.7
2018-Apr-20 17:30N 44°17' W 001°38'4 7.9
2018-Apr-20 17:00N 44°14' W 001°35'4 7.9
2018-Apr-20 16:30N 44°11' W 001°32'4 7.8
2018-Apr-20 15:59N 44°06' W 001°33'1 1.7
2018-Apr-20 15:10N 44°05' W 001°34'0 1.3
2018-Apr-20 15:00N 44°05' W 001°34'  
Track history (hours):
 
Tides and Currents Weather Stations Pressure Air Temp Water Temp Dewpoint Dewpoint Depression Visibility Wind Speed Wind Dir Waves Ship Positions

F/V Eema 2

Last reported at 2018-Apr-22 22:13 UTC. Time now 2018-Apr-24 21:15 UTC.
Position N 43°26' W 001°40'.

Length 10 m.

Type: Fishing. MMSI: 22700000.

Date/timePositionNaut miles runAvg speedWind from/ knotsBaromVisibWave heightAir tempDewpointWater temp
2018-Apr-22 22:13N 43°26' W 001°40'12 8.4
2018-Apr-22 20:48N 43°38' W 001°40'33 8.2
2018-Apr-22 16:49N 44°10' W 001°38'3 8.7
2018-Apr-22 16:30N 44°13' W 001°38'5 8.7
2018-Apr-22 15:59N 44°18' W 001°37'4 8.8
2018-Apr-22 15:29N 44°22' W 001°37'2 2.8
2018-Apr-22 14:58N 44°23' W 001°37'0 0.9
2018-Apr-22 14:30N 44°24' W 001°38'1 0.7
2018-Apr-22 13:16N 44°25' W 001°38'0 1.0
2018-Apr-22 12:57N 44°25' W 001°39'1 0.9
2018-Apr-22 12:15N 44°25' W 001°39'0 1.0
2018-Apr-22 11:59N 44°26' W 001°39'0 0.9
2018-Apr-22 11:27N 44°26' W 001°38'0 0.7
2018-Apr-22 10:56N 44°26' W 001°38'0 0.9
2018-Apr-22 10:30N 44°26' W 001°38'0 1.0
2018-Apr-22 10:00N 44°27' W 001°38'0 0.9
2018-Apr-22 09:27N 44°27' W 001°37'5 4.2
2018-Apr-22 08:11N 44°25' W 001°31'1 2.8
2018-Apr-22 07:59N 44°24' W 001°30'1 1.9
2018-Apr-22 07:29N 44°24' W 001°30'1 2.3
2018-Apr-22 07:00N 44°22' W 001°29'1 0.7
2018-Apr-22 05:33N 44°23' W 001°31'6 0.3
2018-Apr-21 10:57N 44°26' W 001°38'1 2.1
2018-Apr-21 10:29N 44°25' W 001°38'1 1.1
2018-Apr-21 09:55N 44°25' W 001°38'0 1.1
2018-Apr-21 09:30N 44°24' W 001°38'3 0.2
2018-Apr-20 20:47N 44°25' W 001°42'0 0.5
2018-Apr-20 20:30N 44°25' W 001°42'1 2.6
2018-Apr-20 20:00N 44°26' W 001°42'3 4.8
2018-Apr-20 19:26N 44°27' W 001°38'2 5.8
2018-Apr-20 19:00N 44°25' W 001°38'1 1.9
2018-Apr-20 18:25N 44°24' W 001°39'3 7.3
2018-Apr-20 18:00N 44°21' W 001°38'3 6.7
2018-Apr-20 17:30N 44°17' W 001°38'4 7.9
2018-Apr-20 17:00N 44°14' W 001°35'4 7.9
2018-Apr-20 16:30N 44°11' W 001°32'4 7.8
2018-Apr-20 15:59N 44°06' W 001°33'1 1.7
2018-Apr-20 15:10N 44°05' W 001°34'0 1.3
2018-Apr-20 15:00N 44°05' W 001°34'  

Dump ship's entire track history